Ellen — SIDM — position and weather

sailwx.info

Track history (hours):
 
Tides and Currents Weather Stations Pressure Air Temp Water Temp Dewpoint Dewpoint Depression Visibility Wind Speed Wind Dir Waves Ship Positions

Ellen (Sweden)

Ship's website: http://www.syellen.org/Skolsegelfartyget_Ellen/Hem.html

Last reported at 2017-Aug-20 11:29 UTC. Time now 2017-Aug-20 11:30 UTC.
Position N 59°19' E 018°06'.

Length 22 m; draft 2.2 m.

Type: Sailing vessel. MMSI: 265508900.

Date/timePositionNaut miles runAvg speedWind from/ knotsBaromVisibWave heightAir tempDewpointWater temp
2017-Aug-20 11:29N 59°19' E 018°06'0 0.0
2017-Aug-20 10:59N 59°19' E 018°06'0 0.0
2017-Aug-20 10:29N 59°19' E 018°06'0 0.0
2017-Aug-20 09:59N 59°19' E 018°06'0 0.0
2017-Aug-20 09:29N 59°19' E 018°06'0 0.0
2017-Aug-20 08:59N 59°19' E 018°06'0 0.0
2017-Aug-20 08:29N 59°19' E 018°06'0 0.0
2017-Aug-20 07:59N 59°19' E 018°06'0 0.0
2017-Aug-20 07:29N 59°19' E 018°06'0 0.0
2017-Aug-20 06:59N 59°19' E 018°06'0 0.0
2017-Aug-20 06:29N 59°19' E 018°06'0 0.0
2017-Aug-20 05:59N 59°19' E 018°06'0 0.0
2017-Aug-20 05:29N 59°19' E 018°06'0 0.0
2017-Aug-20 04:59N 59°19' E 018°06'0 0.0
2017-Aug-20 04:29N 59°19' E 018°06'0 0.0
2017-Aug-20 03:59N 59°19' E 018°06'0 0.0
2017-Aug-20 03:29N 59°19' E 018°06'0 0.0
2017-Aug-20 02:59N 59°19' E 018°06'0 0.0
2017-Aug-20 02:29N 59°19' E 018°06'0 0.0
2017-Aug-20 01:59N 59°19' E 018°06'0 0.0
2017-Aug-20 01:29N 59°19' E 018°06'0 0.0
2017-Aug-20 00:59N 59°19' E 018°06'0 0.0
2017-Aug-20 00:29N 59°19' E 018°06'0 0.0
2017-Aug-19 23:59N 59°19' E 018°06'0 0.0
2017-Aug-19 23:29N 59°19' E 018°06'0 0.0
2017-Aug-19 22:59N 59°19' E 018°06'0 0.0
2017-Aug-19 22:29N 59°19' E 018°06'0 0.0
2017-Aug-19 21:59N 59°19' E 018°06'0 0.0
2017-Aug-19 21:29N 59°19' E 018°06'0 0.0
2017-Aug-19 20:59N 59°19' E 018°06'0 0.0
2017-Aug-19 20:29N 59°19' E 018°06'0 0.0
2017-Aug-19 19:59N 59°19' E 018°06'0 0.0
2017-Aug-19 19:29N 59°19' E 018°06'0 0.0
2017-Aug-19 18:59N 59°19' E 018°06'1 2.4
2017-Aug-19 18:30N 59°19' E 018°08'3 6.9
2017-Aug-19 18:00N 59°21' E 018°14'2 0.6
2017-Aug-19 14:00N 59°22' E 018°18'0 1.0
2017-Aug-19 13:30N 59°23' E 018°17'1 1.9
2017-Aug-19 13:00N 59°22' E 018°18'2 4.4
2017-Aug-19 12:30N 59°21' E 018°14'2 4.8
2017-Aug-19 12:00N 59°19' E 018°10'1 2.4
2017-Aug-19 11:30N 59°19' E 018°08'1 1.6
2017-Aug-19 10:59N 59°19' E 018°06'0 0.0
2017-Aug-19 10:29N 59°19' E 018°06'0 0.0
2017-Aug-19 09:59N 59°19' E 018°06'0 0.0
2017-Aug-19 09:29N 59°19' E 018°06'0 0.0
2017-Aug-19 08:59N 59°19' E 018°06'0 0.0
2017-Aug-19 08:29N 59°19' E 018°06'0 0.0
2017-Aug-19 07:59N 59°19' E 018°06'0 0.0
2017-Aug-19 07:29N 59°19' E 018°06'0 0.0
2017-Aug-19 06:59N 59°19' E 018°06'0 0.0
2017-Aug-19 06:29N 59°19' E 018°06'0 0.0
2017-Aug-19 05:59N 59°19' E 018°06'0 0.0
2017-Aug-19 05:29N 59°19' E 018°06'0 0.0
2017-Aug-19 04:59N 59°19' E 018°06'0 0.0
2017-Aug-19 04:29N 59°19' E 018°06'0 0.0
2017-Aug-19 03:59N 59°19' E 018°06'0 0.0
2017-Aug-19 03:26N 59°19' E 018°06'0 0.0
2017-Aug-19 02:59N 59°19' E 018°06'0 0.0
2017-Aug-19 02:29N 59°19' E 018°06'0 0.0
2017-Aug-19 01:59N 59°19' E 018°06'0 0.0
2017-Aug-19 01:29N 59°19' E 018°06'0 0.0
2017-Aug-19 00:59N 59°19' E 018°06'0 0.0
2017-Aug-19 00:29N 59°19' E 018°06'0 0.0
2017-Aug-18 23:59N 59°19' E 018°06'0 0.0
2017-Aug-18 23:29N 59°19' E 018°06'0 0.0
2017-Aug-18 22:59N 59°19' E 018°06'0 0.0
2017-Aug-18 22:29N 59°19' E 018°06'0 0.0
2017-Aug-18 21:59N 59°19' E 018°06'0 0.0
2017-Aug-18 21:29N 59°19' E 018°06'0 0.0
2017-Aug-18 20:59N 59°19' E 018°06'0 0.0
2017-Aug-18 20:29N 59°19' E 018°06'0 0.0
2017-Aug-18 19:59N 59°19' E 018°06'0 0.0
2017-Aug-18 19:29N 59°19' E 018°06'0 0.0
2017-Aug-18 18:59N 59°19' E 018°06'0 0.0
2017-Aug-18 18:29N 59°19' E 018°06'0 0.0
2017-Aug-18 17:59N 59°19' E 018°06'0 0.0
2017-Aug-18 17:29N 59°19' E 018°06'0 0.0
2017-Aug-18 16:59N 59°19' E 018°06'0 0.0
2017-Aug-18 16:29N 59°19' E 018°06'0 0.0
2017-Aug-18 15:59N 59°19' E 018°06'0 0.0
2017-Aug-18 15:29N 59°19' E 018°06'0 0.0
2017-Aug-18 14:59N 59°19' E 018°06'0 0.0
2017-Aug-18 13:59N 59°19' E 018°06'0 0.0
2017-Aug-18 13:29N 59°19' E 018°06'0 0.0
2017-Aug-18 12:59N 59°19' E 018°06'0 0.0
2017-Aug-18 12:26N 59°19' E 018°06'0 0.0
2017-Aug-18 11:59N 59°19' E 018°06'0 0.0
2017-Aug-18 11:29N 59°19' E 018°06'0 0.0
2017-Aug-18 10:59N 59°19' E 018°06'0 0.0
2017-Aug-18 10:29N 59°19' E 018°06'0 0.0
2017-Aug-18 09:59N 59°19' E 018°06'0 0.0
2017-Aug-18 09:29N 59°19' E 018°06'0 0.0
2017-Aug-18 08:59N 59°19' E 018°06'0 0.0
2017-Aug-18 08:29N 59°19' E 018°06'0 0.0
2017-Aug-18 07:59N 59°19' E 018°06'0 0.0
2017-Aug-18 07:29N 59°19' E 018°06'0 0.0
2017-Aug-18 06:59N 59°19' E 018°06'0 0.0
2017-Aug-18 06:29N 59°19' E 018°06'0 0.0
2017-Aug-18 05:59N 59°19' E 018°06'0 0.0
2017-Aug-18 05:29N 59°19' E 018°06'0 0.0
2017-Aug-18 04:59N 59°19' E 018°06'0 0.0
2017-Aug-18 04:29N 59°19' E 018°06'0 0.0
2017-Aug-18 03:59N 59°19' E 018°06'0 0.0
2017-Aug-18 03:29N 59°19' E 018°06'0 0.0
2017-Aug-18 02:59N 59°19' E 018°06'0 0.0
2017-Aug-18 02:29N 59°19' E 018°06'0 0.0
2017-Aug-18 01:59N 59°19' E 018°06'0 0.0
2017-Aug-18 01:29N 59°19' E 018°06'0 0.0
2017-Aug-18 00:59N 59°19' E 018°06'0 0.0
2017-Aug-18 00:29N 59°19' E 018°06'0 0.0
2017-Aug-17 23:59N 59°19' E 018°06'0 0.0
2017-Aug-17 23:29N 59°19' E 018°06'0 0.0
2017-Aug-17 22:59N 59°19' E 018°06'0 0.0
2017-Aug-17 22:29N 59°19' E 018°06'0 0.0
2017-Aug-17 21:59N 59°19' E 018°06'0 0.0
2017-Aug-17 21:29N 59°19' E 018°06'0 0.0
2017-Aug-17 20:59N 59°19' E 018°06'0 0.0
2017-Aug-17 20:29N 59°19' E 018°06'0 0.0
2017-Aug-17 19:59N 59°19' E 018°06'0 0.0
2017-Aug-17 19:29N 59°19' E 018°06'0 0.0
2017-Aug-17 19:00N 59°19' E 018°06'0 0.0
2017-Aug-17 18:29N 59°19' E 018°06'0 0.0
2017-Aug-17 17:59N 59°19' E 018°06'0 0.0
2017-Aug-17 17:29N 59°19' E 018°06'0 0.0
2017-Aug-17 16:59N 59°19' E 018°06'0 0.0
2017-Aug-17 16:29N 59°19' E 018°06'0 0.0
2017-Aug-17 15:59N 59°19' E 018°06'0 0.0
2017-Aug-17 15:29N 59°19' E 018°06'0 0.0
2017-Aug-17 14:59N 59°19' E 018°06'0 0.0
2017-Aug-17 14:29N 59°19' E 018°06'0 0.0
2017-Aug-17 13:59N 59°19' E 018°06'0 0.0
2017-Aug-17 13:29N 59°19' E 018°06'0 0.0
2017-Aug-17 12:59N 59°19' E 018°06'0 0.0
2017-Aug-17 12:29N 59°19' E 018°06'0 0.0
2017-Aug-17 11:56N 59°19' E 018°06'0 0.0
2017-Aug-17 11:29N 59°19' E 018°06'0 0.0
2017-Aug-17 10:59N 59°19' E 018°06'0 0.0
2017-Aug-17 10:26N 59°19' E 018°06'0 0.0
2017-Aug-17 09:56N 59°19' E 018°06'0 0.0
2017-Aug-17 09:29N 59°19' E 018°06'0 0.0
2017-Aug-17 08:59N 59°19' E 018°06'0 0.0
2017-Aug-17 08:29N 59°19' E 018°06'0 0.0
2017-Aug-17 07:59N 59°19' E 018°06'0 0.0
2017-Aug-17 07:29N 59°19' E 018°06'0 0.0
2017-Aug-17 06:59N 59°19' E 018°06'0 0.0
2017-Aug-17 06:29N 59°19' E 018°06'0 0.0
2017-Aug-17 05:59N 59°19' E 018°06'0 0.0
2017-Aug-17 05:29N 59°19' E 018°06'0 0.0
2017-Aug-17 04:59N 59°19' E 018°06'0 0.0
2017-Aug-17 04:28N 59°19' E 018°06'0 0.0
2017-Aug-17 03:59N 59°19' E 018°06'0 0.0
2017-Aug-17 03:29N 59°19' E 018°06'0 0.0
2017-Aug-17 02:59N 59°19' E 018°06'0 0.0
2017-Aug-17 02:29N 59°19' E 018°06'0 0.0
2017-Aug-17 01:59N 59°19' E 018°06'0 0.0
2017-Aug-17 01:25N 59°19' E 018°06'0 0.0
2017-Aug-17 00:59N 59°19' E 018°06'0 0.0
2017-Aug-17 00:29N 59°19' E 018°06'0 0.0
2017-Aug-16 23:59N 59°19' E 018°06'0 0.0
2017-Aug-16 23:29N 59°19' E 018°06'0 0.0
2017-Aug-16 22:59N 59°19' E 018°06'0 0.0
2017-Aug-16 22:29N 59°19' E 018°06'0 0.0
2017-Aug-16 21:59N 59°19' E 018°06'0 0.0
2017-Aug-16 21:29N 59°19' E 018°06'0 0.0
2017-Aug-16 20:59N 59°19' E 018°06'0 0.0
2017-Aug-16 20:29N 59°19' E 018°06'0 0.0
2017-Aug-16 19:59N 59°19' E 018°06'0 0.0
2017-Aug-16 19:29N 59°19' E 018°06'0 0.0
2017-Aug-16 18:59N 59°19' E 018°06'0 0.0
2017-Aug-16 18:29N 59°19' E 018°06'0 0.0
2017-Aug-16 17:59N 59°19' E 018°06'0 0.0
2017-Aug-16 17:28N 59°19' E 018°06'0 0.0
2017-Aug-16 16:55N 59°19' E 018°06'0 0.0
2017-Aug-16 16:29N 59°19' E 018°06'0 0.0
2017-Aug-16 15:59N 59°19' E 018°06'0 0.0
2017-Aug-16 15:29N 59°19' E 018°06'0 0.0
2017-Aug-16 14:59N 59°19' E 018°06'0 0.0
2017-Aug-16 14:26N 59°19' E 018°06'0 0.0
2017-Aug-16 13:59N 59°19' E 018°06'0 0.0
2017-Aug-16 13:29N 59°19' E 018°06'0 0.0
2017-Aug-16 12:53N 59°19' E 018°06'0 0.0
2017-Aug-16 12:29N 59°19' E 018°06'0 0.0
2017-Aug-16 11:59N 59°19' E 018°06'0 0.0
2017-Aug-16 11:29N 59°19' E 018°06'0 0.0
2017-Aug-16 10:58N 59°19' E 018°06'0 0.0
2017-Aug-16 10:29N 59°19' E 018°06'0 0.0
2017-Aug-16 09:58N 59°19' E 018°06'0 0.0
2017-Aug-16 09:29N 59°19' E 018°06'0 0.0
2017-Aug-16 08:59N 59°19' E 018°06'0 0.0
2017-Aug-16 08:29N 59°19' E 018°06'0 0.0
2017-Aug-16 07:58N 59°19' E 018°06'0 0.0
2017-Aug-16 07:28N 59°19' E 018°06'0 0.0
2017-Aug-16 06:58N 59°19' E 018°06'0 0.0
2017-Aug-16 06:28N 59°19' E 018°06'0 0.0
2017-Aug-16 05:58N 59°19' E 018°06'0 0.0
2017-Aug-16 05:29N 59°19' E 018°06'0 0.0
2017-Aug-16 04:58N 59°19' E 018°06'0 0.0
2017-Aug-16 04:29N 59°19' E 018°06'0 0.0
2017-Aug-16 03:59N 59°19' E 018°06'0 0.0
2017-Aug-16 03:29N 59°19' E 018°06'0 0.0
2017-Aug-16 02:58N 59°19' E 018°06'0 0.0
2017-Aug-16 02:28N 59°19' E 018°06'0 0.0
2017-Aug-16 01:58N 59°19' E 018°06'0 0.0
2017-Aug-16 01:29N 59°19' E 018°06'0 0.0
2017-Aug-16 00:59N 59°19' E 018°06'0 0.0
2017-Aug-16 00:29N 59°19' E 018°06'0 0.0
2017-Aug-15 23:58N 59°19' E 018°06'0 0.0
2017-Aug-15 23:28N 59°19' E 018°06'0 0.0
2017-Aug-15 22:58N 59°19' E 018°06'0 0.0
2017-Aug-15 22:25N 59°19' E 018°06'0 0.0
2017-Aug-15 21:59N 59°19' E 018°06'0 0.0
2017-Aug-15 21:28N 59°19' E 018°06'0 0.0
2017-Aug-15 20:58N 59°19' E 018°06'0 0.0
2017-Aug-15 20:28N 59°19' E 018°06'0 0.0
2017-Aug-15 19:58N 59°19' E 018°06'0 0.0
2017-Aug-15 19:22N 59°19' E 018°06'0 0.0
2017-Aug-15 18:58N 59°19' E 018°06'0 0.0
2017-Aug-15 18:23N 59°19' E 018°06'0 0.0
2017-Aug-15 17:58N 59°19' E 018°06'0 0.0
2017-Aug-15 17:29N 59°19' E 018°06'0 0.0
2017-Aug-15 16:58N 59°19' E 018°06'0 0.0
2017-Aug-15 16:28N 59°19' E 018°06'0 0.0
2017-Aug-15 15:58N 59°19' E 018°06'0 0.0
2017-Aug-15 15:28N 59°19' E 018°06'0 0.0
2017-Aug-15 14:58N 59°19' E 018°06'0 0.0
2017-Aug-15 14:29N 59°19' E 018°06'0 0.0
2017-Aug-15 13:58N 59°19' E 018°06'0 0.0
2017-Aug-15 13:28N 59°19' E 018°06'0 0.0
2017-Aug-15 12:58N 59°19' E 018°06'0 0.0
2017-Aug-15 12:28N 59°19' E 018°06'0 0.0
2017-Aug-15 11:55N 59°19' E 018°06'0 0.0
2017-Aug-15 11:28N 59°19' E 018°06'0 0.0
2017-Aug-15 10:58N 59°19' E 018°06'0 0.0
2017-Aug-15 10:22N 59°19' E 018°06'0 0.0
2017-Aug-15 09:58N 59°19' E 018°06'0 0.0
2017-Aug-15 09:28N 59°19' E 018°06'0 0.0
2017-Aug-15 08:58N 59°19' E 018°06'0 0.0
2017-Aug-15 08:28N 59°19' E 018°06'0 0.0
2017-Aug-15 07:58N 59°19' E 018°06'0 0.0
2017-Aug-15 07:22N 59°19' E 018°06'0 0.0
2017-Aug-15 06:58N 59°19' E 018°06'0 0.0
2017-Aug-15 06:28N 59°19' E 018°06'0 0.0
2017-Aug-15 05:58N 59°19' E 018°06'0 0.0
2017-Aug-15 05:28N 59°19' E 018°06'0 0.0
2017-Aug-15 04:58N 59°19' E 018°06'0 0.0
2017-Aug-15 04:28N 59°19' E 018°06'0 0.0
2017-Aug-15 03:58N 59°19' E 018°06'0 0.0
2017-Aug-15 03:28N 59°19' E 018°06'0 0.0
2017-Aug-15 02:58N 59°19' E 018°06'0 0.0
2017-Aug-15 02:28N 59°19' E 018°06'0 0.0
2017-Aug-15 01:58N 59°19' E 018°06'0 0.0
2017-Aug-15 01:30N 59°19' E 018°06'0 0.0
2017-Aug-15 00:59N 59°19' E 018°06'0 0.0
2017-Aug-15 00:28N 59°19' E 018°06'0 0.0
2017-Aug-14 23:58N 59°19' E 018°06'0 0.0
2017-Aug-14 23:31N 59°19' E 018°06'0 0.0
2017-Aug-14 22:58N 59°19' E 018°06'0 0.0
2017-Aug-14 22:28N 59°19' E 018°06'0 0.0
2017-Aug-14 21:58N 59°19' E 018°06'0 0.0
2017-Aug-14 21:30N 59°19' E 018°06'0 0.0
2017-Aug-14 20:58N 59°19' E 018°06'0 0.0
2017-Aug-14 20:29N 59°19' E 018°06'0 0.0
2017-Aug-14 20:00N 59°19' E 018°06'0 0.0
2017-Aug-14 19:28N 59°19' E 018°06'0 0.0
2017-Aug-14 18:58N 59°19' E 018°06'0 0.0
2017-Aug-14 18:28N 59°19' E 018°06'0 0.0
2017-Aug-14 17:58N 59°19' E 018°06'0 0.0
2017-Aug-14 17:28N 59°19' E 018°06'0 0.0
2017-Aug-14 16:58N 59°19' E 018°06'0 0.0
2017-Aug-14 16:31N 59°19' E 018°06'0 0.0
2017-Aug-14 15:57N 59°19' E 018°06'0 0.0
2017-Aug-14 15:24N 59°19' E 018°06'0 0.0
2017-Aug-14 14:55N 59°19' E 018°06'0 0.0
2017-Aug-14 14:28N 59°19' E 018°06'2 3.7
2017-Aug-14 14:00N 59°19' E 018°10'3 5.4
2017-Aug-14 13:30N 59°21' E 018°14'3 0.3
2017-Aug-14 03:47N 59°21' E 018°19'0 0.0
2017-Aug-14 03:23N 59°21' E 018°19'0 0.0
2017-Aug-13 16:42N 59°21' E 018°19'1 4.4
2017-Aug-13 16:30N 59°22' E 018°19'3 5.8
2017-Aug-13 16:00N 59°24' E 018°22'2 4.9
2017-Aug-13 15:30N 59°26' E 018°24'0 0.7
2017-Aug-13 15:01N 59°26' E 018°25'3 5.6
2017-Aug-13 14:30N 59°28' E 018°29'2 3.0
2017-Aug-13 14:00N 59°30' E 018°30'0 0.5
2017-Aug-13 13:30N 59°29' E 018°30'2 3.1
2017-Aug-13 13:00N 59°28' E 018°29'1 2.3
2017-Aug-13 12:30N 59°27' E 018°31'2 3.5
2017-Aug-13 12:00N 59°26' E 018°32'1 1.1
2017-Aug-13 11:31N 59°25' E 018°32'0 0.2
2017-Aug-13 11:00N 59°25' E 018°32'2 3.8
2017-Aug-13 10:30N 59°24' E 018°35'3 6.0
2017-Aug-13 09:59N 59°26' E 018°40'3 6.2
2017-Aug-13 09:30N 59°27' E 018°45'1 0.1
2017-Aug-12 20:33N 59°27' E 018°47'0 0.0
2017-Aug-12 20:19N 59°27' E 018°47'0 0.0
2017-Aug-12 20:00N 59°27' E 018°47'0 0.0
2017-Aug-12 17:56N 59°27' E 018°47'0 0.0
2017-Aug-12 17:30N 59°27' E 018°47'1 1.0
2017-Aug-12 17:00N 59°27' E 018°46'2 4.4
2017-Aug-12 16:30N 59°25' E 018°49'2 3.0
2017-Aug-12 16:00N 59°24' E 018°51'0 0.6
2017-Aug-12 15:30N 59°24' E 018°50'1 2.1
2017-Aug-12 15:00N 59°23' E 018°50'1 1.9
2017-Aug-12 14:30N 59°22' E 018°50'2 3.2
2017-Aug-12 14:00N 59°21' E 018°47'1 2.1
2017-Aug-12 13:30N 59°20' E 018°46'1 1.4
2017-Aug-12 13:00N 59°20' E 018°47'0 0.7
2017-Aug-12 12:30N 59°20' E 018°47'1 1.8
2017-Aug-12 12:00N 59°19' E 018°48'3 5.7
2017-Aug-12 11:30N 59°17' E 018°44'1 1.3
2017-Aug-12 11:00N 59°17' E 018°42'2 3.9
2017-Aug-12 10:25N 59°15' E 018°40'1 0.3
2017-Aug-12 06:51N 59°15' E 018°38'0 0.0
2017-Aug-12 06:27N 59°15' E 018°38'0 0.0
2017-Aug-12 06:00N 59°15' E 018°38'0 0.0
2017-Aug-12 05:30N 59°15' E 018°38'0 0.0
2017-Aug-12 03:42N 59°15' E 018°38'0 0.0
2017-Aug-12 03:30N 59°15' E 018°38'0 0.0
2017-Aug-12 02:51N 59°15' E 018°38'0 0.0
2017-Aug-12 02:30N 59°15' E 018°38'0 0.0
2017-Aug-12 00:12N 59°15' E 018°38'0 0.0
2017-Aug-11 23:57N 59°15' E 018°38'0 0.0
2017-Aug-11 23:30N 59°15' E 018°38'0 0.0
2017-Aug-11 21:42N 59°15' E 018°38'0 0.0
2017-Aug-11 21:30N 59°15' E 018°38'0 0.0
2017-Aug-11 21:00N 59°15' E 018°38'0 0.0
2017-Aug-11 20:27N 59°15' E 018°38'0 0.0
2017-Aug-11 19:58N 59°15' E 018°38'0 0.0
2017-Aug-11 19:30N 59°15' E 018°38'0 0.0
2017-Aug-11 19:00N 59°15' E 018°38'0 0.0
2017-Aug-11 18:30N 59°15' E 018°38'0 0.0
2017-Aug-11 18:00N 59°15' E 018°38'0 0.0
2017-Aug-11 17:30N 59°15' E 018°38'0 0.0
2017-Aug-11 16:59N 59°15' E 018°38'0 0.0
2017-Aug-11 16:30N 59°15' E 018°38'0 0.0
2017-Aug-11 15:57N 59°15' E 018°38'0 0.0
2017-Aug-11 15:30N 59°15' E 018°38'0 0.9
2017-Aug-11 15:00N 59°14' E 018°38'3 5.3
2017-Aug-11 14:30N 59°16' E 018°42'1 0.8
2017-Aug-11 13:30N 59°17' E 018°43'0 0.3
2017-Aug-11 12:59N 59°17' E 018°43'0 0.6
2017-Aug-11 12:27N 59°17' E 018°44'3 6.3
2017-Aug-11 12:01N 59°14' E 018°41'1 1.4
2017-Aug-11 11:29N 59°14' E 018°42'0 0.3
2017-Aug-11 10:45N 59°14' E 018°43'0 0.6
2017-Aug-11 10:30N 59°14' E 018°43'1 2.2
2017-Aug-11 09:54N 59°12' E 018°43'0 0.0
2017-Aug-11 09:30N 59°12' E 018°43'0 0.0
2017-Aug-11 08:57N 59°12' E 018°43'0 0.0
2017-Aug-11 08:27N 59°12' E 018°43'0 0.0
2017-Aug-11 07:54N 59°12' E 018°43'0 0.0
2017-Aug-11 07:18N 59°12' E 018°43'0 0.0
2017-Aug-11 06:16N 59°12' E 018°43'0 0.0
2017-Aug-11 05:55N 59°12' E 018°43'0 0.0
2017-Aug-11 05:21N 59°12' E 018°43'0 0.0
2017-Aug-11 05:00N 59°12' E 018°43'1 0.0
2017-Aug-10 16:44N 59°13' E 018°43'2 6.8
2017-Aug-10 16:29N 59°14' E 018°45'2 1.5
2017-Aug-10 15:20N 59°16' E 018°47'1 2.2
2017-Aug-10 14:59N 59°15' E 018°46'2 3.4
2017-Aug-10 14:24N 59°14' E 018°42'3 2.0
2017-Aug-10 12:49N 59°17' E 018°44'0 1.0
2017-Aug-10 12:25N 59°18' E 018°45'1 1.3
2017-Aug-10 12:00N 59°18' E 018°45'1 1.7
2017-Aug-10 11:30N 59°18' E 018°47'  
Track history (hours):
 
Tides and Currents Weather Stations Pressure Air Temp Water Temp Dewpoint Dewpoint Depression Visibility Wind Speed Wind Dir Waves Ship Positions

Ellen (Sweden)

Ship's website: http://www.syellen.org/Skolsegelfartyget_Ellen/Hem.html

Last reported at 2017-Aug-20 11:29 UTC. Time now 2017-Aug-20 11:30 UTC.
Position N 59°19' E 018°06'.

Length 22 m; draft 2.2 m.

Type: Sailing vessel. MMSI: 265508900.

Date/timePositionNaut miles runAvg speedWind from/ knotsBaromVisibWave heightAir tempDewpointWater temp
2017-Aug-20 11:29N 59°19' E 018°06'0 0.0
2017-Aug-20 10:59N 59°19' E 018°06'0 0.0
2017-Aug-20 10:29N 59°19' E 018°06'0 0.0
2017-Aug-20 09:59N 59°19' E 018°06'0 0.0
2017-Aug-20 09:29N 59°19' E 018°06'0 0.0
2017-Aug-20 08:59N 59°19' E 018°06'0 0.0
2017-Aug-20 08:29N 59°19' E 018°06'0 0.0
2017-Aug-20 07:59N 59°19' E 018°06'0 0.0
2017-Aug-20 07:29N 59°19' E 018°06'0 0.0
2017-Aug-20 06:59N 59°19' E 018°06'0 0.0
2017-Aug-20 06:29N 59°19' E 018°06'0 0.0
2017-Aug-20 05:59N 59°19' E 018°06'0 0.0
2017-Aug-20 05:29N 59°19' E 018°06'0 0.0
2017-Aug-20 04:59N 59°19' E 018°06'0 0.0
2017-Aug-20 04:29N 59°19' E 018°06'0 0.0
2017-Aug-20 03:59N 59°19' E 018°06'0 0.0
2017-Aug-20 03:29N 59°19' E 018°06'0 0.0
2017-Aug-20 02:59N 59°19' E 018°06'0 0.0
2017-Aug-20 02:29N 59°19' E 018°06'0 0.0
2017-Aug-20 01:59N 59°19' E 018°06'0 0.0
2017-Aug-20 01:29N 59°19' E 018°06'0 0.0
2017-Aug-20 00:59N 59°19' E 018°06'0 0.0
2017-Aug-20 00:29N 59°19' E 018°06'0 0.0
2017-Aug-19 23:59N 59°19' E 018°06'0 0.0
2017-Aug-19 23:29N 59°19' E 018°06'0 0.0
2017-Aug-19 22:59N 59°19' E 018°06'0 0.0
2017-Aug-19 22:29N 59°19' E 018°06'0 0.0
2017-Aug-19 21:59N 59°19' E 018°06'0 0.0
2017-Aug-19 21:29N 59°19' E 018°06'0 0.0
2017-Aug-19 20:59N 59°19' E 018°06'0 0.0
2017-Aug-19 20:29N 59°19' E 018°06'0 0.0
2017-Aug-19 19:59N 59°19' E 018°06'0 0.0
2017-Aug-19 19:29N 59°19' E 018°06'0 0.0
2017-Aug-19 18:59N 59°19' E 018°06'1 2.4
2017-Aug-19 18:30N 59°19' E 018°08'3 6.9
2017-Aug-19 18:00N 59°21' E 018°14'2 0.6
2017-Aug-19 14:00N 59°22' E 018°18'0 1.0
2017-Aug-19 13:30N 59°23' E 018°17'1 1.9
2017-Aug-19 13:00N 59°22' E 018°18'2 4.4
2017-Aug-19 12:30N 59°21' E 018°14'2 4.8
2017-Aug-19 12:00N 59°19' E 018°10'1 2.4
2017-Aug-19 11:30N 59°19' E 018°08'1 1.6
2017-Aug-19 10:59N 59°19' E 018°06'0 0.0
2017-Aug-19 10:29N 59°19' E 018°06'0 0.0
2017-Aug-19 09:59N 59°19' E 018°06'0 0.0
2017-Aug-19 09:29N 59°19' E 018°06'0 0.0
2017-Aug-19 08:59N 59°19' E 018°06'0 0.0
2017-Aug-19 08:29N 59°19' E 018°06'0 0.0
2017-Aug-19 07:59N 59°19' E 018°06'0 0.0
2017-Aug-19 07:29N 59°19' E 018°06'0 0.0
2017-Aug-19 06:59N 59°19' E 018°06'0 0.0
2017-Aug-19 06:29N 59°19' E 018°06'0 0.0
2017-Aug-19 05:59N 59°19' E 018°06'0 0.0
2017-Aug-19 05:29N 59°19' E 018°06'0 0.0
2017-Aug-19 04:59N 59°19' E 018°06'0 0.0
2017-Aug-19 04:29N 59°19' E 018°06'0 0.0
2017-Aug-19 03:59N 59°19' E 018°06'0 0.0
2017-Aug-19 03:26N 59°19' E 018°06'0 0.0
2017-Aug-19 02:59N 59°19' E 018°06'0 0.0
2017-Aug-19 02:29N 59°19' E 018°06'0 0.0
2017-Aug-19 01:59N 59°19' E 018°06'0 0.0
2017-Aug-19 01:29N 59°19' E 018°06'0 0.0
2017-Aug-19 00:59N 59°19' E 018°06'0 0.0
2017-Aug-19 00:29N 59°19' E 018°06'0 0.0
2017-Aug-18 23:59N 59°19' E 018°06'0 0.0
2017-Aug-18 23:29N 59°19' E 018°06'0 0.0
2017-Aug-18 22:59N 59°19' E 018°06'0 0.0
2017-Aug-18 22:29N 59°19' E 018°06'0 0.0
2017-Aug-18 21:59N 59°19' E 018°06'0 0.0
2017-Aug-18 21:29N 59°19' E 018°06'0 0.0
2017-Aug-18 20:59N 59°19' E 018°06'0 0.0
2017-Aug-18 20:29N 59°19' E 018°06'0 0.0
2017-Aug-18 19:59N 59°19' E 018°06'0 0.0
2017-Aug-18 19:29N 59°19' E 018°06'0 0.0
2017-Aug-18 18:59N 59°19' E 018°06'0 0.0
2017-Aug-18 18:29N 59°19' E 018°06'0 0.0
2017-Aug-18 17:59N 59°19' E 018°06'0 0.0
2017-Aug-18 17:29N 59°19' E 018°06'0 0.0
2017-Aug-18 16:59N 59°19' E 018°06'0 0.0
2017-Aug-18 16:29N 59°19' E 018°06'0 0.0
2017-Aug-18 15:59N 59°19' E 018°06'0 0.0
2017-Aug-18 15:29N 59°19' E 018°06'0 0.0
2017-Aug-18 14:59N 59°19' E 018°06'0 0.0
2017-Aug-18 13:59N 59°19' E 018°06'0 0.0
2017-Aug-18 13:29N 59°19' E 018°06'0 0.0
2017-Aug-18 12:59N 59°19' E 018°06'0 0.0
2017-Aug-18 12:26N 59°19' E 018°06'0 0.0
2017-Aug-18 11:59N 59°19' E 018°06'0 0.0
2017-Aug-18 11:29N 59°19' E 018°06'0 0.0
2017-Aug-18 10:59N 59°19' E 018°06'0 0.0
2017-Aug-18 10:29N 59°19' E 018°06'0 0.0
2017-Aug-18 09:59N 59°19' E 018°06'0 0.0
2017-Aug-18 09:29N 59°19' E 018°06'0 0.0
2017-Aug-18 08:59N 59°19' E 018°06'0 0.0
2017-Aug-18 08:29N 59°19' E 018°06'0 0.0
2017-Aug-18 07:59N 59°19' E 018°06'0 0.0
2017-Aug-18 07:29N 59°19' E 018°06'0 0.0
2017-Aug-18 06:59N 59°19' E 018°06'0 0.0
2017-Aug-18 06:29N 59°19' E 018°06'0 0.0
2017-Aug-18 05:59N 59°19' E 018°06'0 0.0
2017-Aug-18 05:29N 59°19' E 018°06'0 0.0
2017-Aug-18 04:59N 59°19' E 018°06'0 0.0
2017-Aug-18 04:29N 59°19' E 018°06'0 0.0
2017-Aug-18 03:59N 59°19' E 018°06'0 0.0
2017-Aug-18 03:29N 59°19' E 018°06'0 0.0
2017-Aug-18 02:59N 59°19' E 018°06'0 0.0
2017-Aug-18 02:29N 59°19' E 018°06'0 0.0
2017-Aug-18 01:59N 59°19' E 018°06'0 0.0
2017-Aug-18 01:29N 59°19' E 018°06'0 0.0
2017-Aug-18 00:59N 59°19' E 018°06'0 0.0
2017-Aug-18 00:29N 59°19' E 018°06'0 0.0
2017-Aug-17 23:59N 59°19' E 018°06'0 0.0
2017-Aug-17 23:29N 59°19' E 018°06'0 0.0
2017-Aug-17 22:59N 59°19' E 018°06'0 0.0
2017-Aug-17 22:29N 59°19' E 018°06'0 0.0
2017-Aug-17 21:59N 59°19' E 018°06'0 0.0
2017-Aug-17 21:29N 59°19' E 018°06'0 0.0
2017-Aug-17 20:59N 59°19' E 018°06'0 0.0
2017-Aug-17 20:29N 59°19' E 018°06'0 0.0
2017-Aug-17 19:59N 59°19' E 018°06'0 0.0
2017-Aug-17 19:29N 59°19' E 018°06'0 0.0
2017-Aug-17 19:00N 59°19' E 018°06'0 0.0
2017-Aug-17 18:29N 59°19' E 018°06'0 0.0
2017-Aug-17 17:59N 59°19' E 018°06'0 0.0
2017-Aug-17 17:29N 59°19' E 018°06'0 0.0
2017-Aug-17 16:59N 59°19' E 018°06'0 0.0
2017-Aug-17 16:29N 59°19' E 018°06'0 0.0
2017-Aug-17 15:59N 59°19' E 018°06'0 0.0
2017-Aug-17 15:29N 59°19' E 018°06'0 0.0
2017-Aug-17 14:59N 59°19' E 018°06'0 0.0
2017-Aug-17 14:29N 59°19' E 018°06'0 0.0
2017-Aug-17 13:59N 59°19' E 018°06'0 0.0
2017-Aug-17 13:29N 59°19' E 018°06'0 0.0
2017-Aug-17 12:59N 59°19' E 018°06'0 0.0
2017-Aug-17 12:29N 59°19' E 018°06'0 0.0
2017-Aug-17 11:56N 59°19' E 018°06'0 0.0
2017-Aug-17 11:29N 59°19' E 018°06'0 0.0
2017-Aug-17 10:59N 59°19' E 018°06'0 0.0
2017-Aug-17 10:26N 59°19' E 018°06'0 0.0
2017-Aug-17 09:56N 59°19' E 018°06'0 0.0
2017-Aug-17 09:29N 59°19' E 018°06'0 0.0
2017-Aug-17 08:59N 59°19' E 018°06'0 0.0
2017-Aug-17 08:29N 59°19' E 018°06'0 0.0
2017-Aug-17 07:59N 59°19' E 018°06'0 0.0
2017-Aug-17 07:29N 59°19' E 018°06'0 0.0
2017-Aug-17 06:59N 59°19' E 018°06'0 0.0
2017-Aug-17 06:29N 59°19' E 018°06'0 0.0
2017-Aug-17 05:59N 59°19' E 018°06'0 0.0
2017-Aug-17 05:29N 59°19' E 018°06'0 0.0
2017-Aug-17 04:59N 59°19' E 018°06'0 0.0
2017-Aug-17 04:28N 59°19' E 018°06'0 0.0
2017-Aug-17 03:59N 59°19' E 018°06'0 0.0
2017-Aug-17 03:29N 59°19' E 018°06'0 0.0
2017-Aug-17 02:59N 59°19' E 018°06'0 0.0
2017-Aug-17 02:29N 59°19' E 018°06'0 0.0
2017-Aug-17 01:59N 59°19' E 018°06'0 0.0
2017-Aug-17 01:25N 59°19' E 018°06'0 0.0
2017-Aug-17 00:59N 59°19' E 018°06'0 0.0
2017-Aug-17 00:29N 59°19' E 018°06'0 0.0
2017-Aug-16 23:59N 59°19' E 018°06'0 0.0
2017-Aug-16 23:29N 59°19' E 018°06'0 0.0
2017-Aug-16 22:59N 59°19' E 018°06'0 0.0
2017-Aug-16 22:29N 59°19' E 018°06'0 0.0
2017-Aug-16 21:59N 59°19' E 018°06'0 0.0
2017-Aug-16 21:29N 59°19' E 018°06'0 0.0
2017-Aug-16 20:59N 59°19' E 018°06'0 0.0
2017-Aug-16 20:29N 59°19' E 018°06'0 0.0
2017-Aug-16 19:59N 59°19' E 018°06'0 0.0
2017-Aug-16 19:29N 59°19' E 018°06'0 0.0
2017-Aug-16 18:59N 59°19' E 018°06'0 0.0
2017-Aug-16 18:29N 59°19' E 018°06'0 0.0
2017-Aug-16 17:59N 59°19' E 018°06'0 0.0
2017-Aug-16 17:28N 59°19' E 018°06'0 0.0
2017-Aug-16 16:55N 59°19' E 018°06'0 0.0
2017-Aug-16 16:29N 59°19' E 018°06'0 0.0
2017-Aug-16 15:59N 59°19' E 018°06'0 0.0
2017-Aug-16 15:29N 59°19' E 018°06'0 0.0
2017-Aug-16 14:59N 59°19' E 018°06'0 0.0
2017-Aug-16 14:26N 59°19' E 018°06'0 0.0
2017-Aug-16 13:59N 59°19' E 018°06'0 0.0
2017-Aug-16 13:29N 59°19' E 018°06'0 0.0
2017-Aug-16 12:53N 59°19' E 018°06'0 0.0
2017-Aug-16 12:29N 59°19' E 018°06'0 0.0
2017-Aug-16 11:59N 59°19' E 018°06'0 0.0
2017-Aug-16 11:29N 59°19' E 018°06'0 0.0
2017-Aug-16 10:58N 59°19' E 018°06'0 0.0
2017-Aug-16 10:29N 59°19' E 018°06'0 0.0
2017-Aug-16 09:58N 59°19' E 018°06'0 0.0
2017-Aug-16 09:29N 59°19' E 018°06'0 0.0
2017-Aug-16 08:59N 59°19' E 018°06'0 0.0
2017-Aug-16 08:29N 59°19' E 018°06'0 0.0
2017-Aug-16 07:58N 59°19' E 018°06'0 0.0
2017-Aug-16 07:28N 59°19' E 018°06'0 0.0
2017-Aug-16 06:58N 59°19' E 018°06'0 0.0
2017-Aug-16 06:28N 59°19' E 018°06'0 0.0
2017-Aug-16 05:58N 59°19' E 018°06'0 0.0
2017-Aug-16 05:29N 59°19' E 018°06'0 0.0
2017-Aug-16 04:58N 59°19' E 018°06'0 0.0
2017-Aug-16 04:29N 59°19' E 018°06'0 0.0
2017-Aug-16 03:59N 59°19' E 018°06'0 0.0
2017-Aug-16 03:29N 59°19' E 018°06'0 0.0
2017-Aug-16 02:58N 59°19' E 018°06'0 0.0
2017-Aug-16 02:28N 59°19' E 018°06'0 0.0
2017-Aug-16 01:58N 59°19' E 018°06'0 0.0
2017-Aug-16 01:29N 59°19' E 018°06'0 0.0
2017-Aug-16 00:59N 59°19' E 018°06'0 0.0
2017-Aug-16 00:29N 59°19' E 018°06'0 0.0
2017-Aug-15 23:58N 59°19' E 018°06'0 0.0
2017-Aug-15 23:28N 59°19' E 018°06'0 0.0
2017-Aug-15 22:58N 59°19' E 018°06'0 0.0
2017-Aug-15 22:25N 59°19' E 018°06'0 0.0
2017-Aug-15 21:59N 59°19' E 018°06'0 0.0
2017-Aug-15 21:28N 59°19' E 018°06'0 0.0
2017-Aug-15 20:58N 59°19' E 018°06'0 0.0
2017-Aug-15 20:28N 59°19' E 018°06'0 0.0
2017-Aug-15 19:58N 59°19' E 018°06'0 0.0
2017-Aug-15 19:22N 59°19' E 018°06'0 0.0
2017-Aug-15 18:58N 59°19' E 018°06'0 0.0
2017-Aug-15 18:23N 59°19' E 018°06'0 0.0
2017-Aug-15 17:58N 59°19' E 018°06'0 0.0
2017-Aug-15 17:29N 59°19' E 018°06'0 0.0
2017-Aug-15 16:58N 59°19' E 018°06'0 0.0
2017-Aug-15 16:28N 59°19' E 018°06'0 0.0
2017-Aug-15 15:58N 59°19' E 018°06'0 0.0
2017-Aug-15 15:28N 59°19' E 018°06'0 0.0
2017-Aug-15 14:58N 59°19' E 018°06'0 0.0
2017-Aug-15 14:29N 59°19' E 018°06'0 0.0
2017-Aug-15 13:58N 59°19' E 018°06'0 0.0
2017-Aug-15 13:28N 59°19' E 018°06'0 0.0
2017-Aug-15 12:58N 59°19' E 018°06'0 0.0
2017-Aug-15 12:28N 59°19' E 018°06'0 0.0
2017-Aug-15 11:55N 59°19' E 018°06'0 0.0
2017-Aug-15 11:28N 59°19' E 018°06'0 0.0
2017-Aug-15 10:58N 59°19' E 018°06'0 0.0
2017-Aug-15 10:22N 59°19' E 018°06'0 0.0
2017-Aug-15 09:58N 59°19' E 018°06'0 0.0
2017-Aug-15 09:28N 59°19' E 018°06'0 0.0
2017-Aug-15 08:58N 59°19' E 018°06'0 0.0
2017-Aug-15 08:28N 59°19' E 018°06'0 0.0
2017-Aug-15 07:58N 59°19' E 018°06'0 0.0
2017-Aug-15 07:22N 59°19' E 018°06'0 0.0
2017-Aug-15 06:58N 59°19' E 018°06'0 0.0
2017-Aug-15 06:28N 59°19' E 018°06'0 0.0
2017-Aug-15 05:58N 59°19' E 018°06'0 0.0
2017-Aug-15 05:28N 59°19' E 018°06'0 0.0
2017-Aug-15 04:58N 59°19' E 018°06'0 0.0
2017-Aug-15 04:28N 59°19' E 018°06'0 0.0
2017-Aug-15 03:58N 59°19' E 018°06'0 0.0
2017-Aug-15 03:28N 59°19' E 018°06'0 0.0
2017-Aug-15 02:58N 59°19' E 018°06'0 0.0
2017-Aug-15 02:28N 59°19' E 018°06'0 0.0
2017-Aug-15 01:58N 59°19' E 018°06'0 0.0
2017-Aug-15 01:30N 59°19' E 018°06'0 0.0
2017-Aug-15 00:59N 59°19' E 018°06'0 0.0
2017-Aug-15 00:28N 59°19' E 018°06'0 0.0
2017-Aug-14 23:58N 59°19' E 018°06'0 0.0
2017-Aug-14 23:31N 59°19' E 018°06'0 0.0
2017-Aug-14 22:58N 59°19' E 018°06'0 0.0
2017-Aug-14 22:28N 59°19' E 018°06'0 0.0
2017-Aug-14 21:58N 59°19' E 018°06'0 0.0
2017-Aug-14 21:30N 59°19' E 018°06'0 0.0
2017-Aug-14 20:58N 59°19' E 018°06'0 0.0
2017-Aug-14 20:29N 59°19' E 018°06'0 0.0
2017-Aug-14 20:00N 59°19' E 018°06'0 0.0
2017-Aug-14 19:28N 59°19' E 018°06'0 0.0
2017-Aug-14 18:58N 59°19' E 018°06'0 0.0
2017-Aug-14 18:28N 59°19' E 018°06'0 0.0
2017-Aug-14 17:58N 59°19' E 018°06'0 0.0
2017-Aug-14 17:28N 59°19' E 018°06'0 0.0
2017-Aug-14 16:58N 59°19' E 018°06'0 0.0
2017-Aug-14 16:31N 59°19' E 018°06'0 0.0
2017-Aug-14 15:57N 59°19' E 018°06'0 0.0
2017-Aug-14 15:24N 59°19' E 018°06'0 0.0
2017-Aug-14 14:55N 59°19' E 018°06'0 0.0
2017-Aug-14 14:28N 59°19' E 018°06'2 3.7
2017-Aug-14 14:00N 59°19' E 018°10'3 5.4
2017-Aug-14 13:30N 59°21' E 018°14'3 0.3
2017-Aug-14 03:47N 59°21' E 018°19'0 0.0
2017-Aug-14 03:23N 59°21' E 018°19'0 0.0
2017-Aug-13 16:42N 59°21' E 018°19'1 4.4
2017-Aug-13 16:30N 59°22' E 018°19'3 5.8
2017-Aug-13 16:00N 59°24' E 018°22'2 4.9
2017-Aug-13 15:30N 59°26' E 018°24'0 0.7
2017-Aug-13 15:01N 59°26' E 018°25'3 5.6
2017-Aug-13 14:30N 59°28' E 018°29'2 3.0
2017-Aug-13 14:00N 59°30' E 018°30'0 0.5
2017-Aug-13 13:30N 59°29' E 018°30'2 3.1
2017-Aug-13 13:00N 59°28' E 018°29'1 2.3
2017-Aug-13 12:30N 59°27' E 018°31'2 3.5
2017-Aug-13 12:00N 59°26' E 018°32'1 1.1
2017-Aug-13 11:31N 59°25' E 018°32'0 0.2
2017-Aug-13 11:00N 59°25' E 018°32'2 3.8
2017-Aug-13 10:30N 59°24' E 018°35'3 6.0
2017-Aug-13 09:59N 59°26' E 018°40'3 6.2
2017-Aug-13 09:30N 59°27' E 018°45'1 0.1
2017-Aug-12 20:33N 59°27' E 018°47'0 0.0
2017-Aug-12 20:19N 59°27' E 018°47'0 0.0
2017-Aug-12 20:00N 59°27' E 018°47'0 0.0
2017-Aug-12 17:56N 59°27' E 018°47'0 0.0
2017-Aug-12 17:30N 59°27' E 018°47'1 1.0
2017-Aug-12 17:00N 59°27' E 018°46'2 4.4
2017-Aug-12 16:30N 59°25' E 018°49'2 3.0
2017-Aug-12 16:00N 59°24' E 018°51'0 0.6
2017-Aug-12 15:30N 59°24' E 018°50'1 2.1
2017-Aug-12 15:00N 59°23' E 018°50'1 1.9
2017-Aug-12 14:30N 59°22' E 018°50'2 3.2
2017-Aug-12 14:00N 59°21' E 018°47'1 2.1
2017-Aug-12 13:30N 59°20' E 018°46'1 1.4
2017-Aug-12 13:00N 59°20' E 018°47'0 0.7
2017-Aug-12 12:30N 59°20' E 018°47'1 1.8
2017-Aug-12 12:00N 59°19' E 018°48'3 5.7
2017-Aug-12 11:30N 59°17' E 018°44'1 1.3
2017-Aug-12 11:00N 59°17' E 018°42'2 3.9
2017-Aug-12 10:25N 59°15' E 018°40'1 0.3
2017-Aug-12 06:51N 59°15' E 018°38'0 0.0
2017-Aug-12 06:27N 59°15' E 018°38'0 0.0
2017-Aug-12 06:00N 59°15' E 018°38'0 0.0
2017-Aug-12 05:30N 59°15' E 018°38'0 0.0
2017-Aug-12 03:42N 59°15' E 018°38'0 0.0
2017-Aug-12 03:30N 59°15' E 018°38'0 0.0
2017-Aug-12 02:51N 59°15' E 018°38'0 0.0
2017-Aug-12 02:30N 59°15' E 018°38'0 0.0
2017-Aug-12 00:12N 59°15' E 018°38'0 0.0
2017-Aug-11 23:57N 59°15' E 018°38'0 0.0
2017-Aug-11 23:30N 59°15' E 018°38'0 0.0
2017-Aug-11 21:42N 59°15' E 018°38'0 0.0
2017-Aug-11 21:30N 59°15' E 018°38'0 0.0
2017-Aug-11 21:00N 59°15' E 018°38'0 0.0
2017-Aug-11 20:27N 59°15' E 018°38'0 0.0
2017-Aug-11 19:58N 59°15' E 018°38'0 0.0
2017-Aug-11 19:30N 59°15' E 018°38'0 0.0
2017-Aug-11 19:00N 59°15' E 018°38'0 0.0
2017-Aug-11 18:30N 59°15' E 018°38'0 0.0
2017-Aug-11 18:00N 59°15' E 018°38'0 0.0
2017-Aug-11 17:30N 59°15' E 018°38'0 0.0
2017-Aug-11 16:59N 59°15' E 018°38'0 0.0
2017-Aug-11 16:30N 59°15' E 018°38'0 0.0
2017-Aug-11 15:57N 59°15' E 018°38'0 0.0
2017-Aug-11 15:30N 59°15' E 018°38'0 0.9
2017-Aug-11 15:00N 59°14' E 018°38'3 5.3
2017-Aug-11 14:30N 59°16' E 018°42'1 0.8
2017-Aug-11 13:30N 59°17' E 018°43'0 0.3
2017-Aug-11 12:59N 59°17' E 018°43'0 0.6
2017-Aug-11 12:27N 59°17' E 018°44'3 6.3
2017-Aug-11 12:01N 59°14' E 018°41'1 1.4
2017-Aug-11 11:29N 59°14' E 018°42'0 0.3
2017-Aug-11 10:45N 59°14' E 018°43'0 0.6
2017-Aug-11 10:30N 59°14' E 018°43'1 2.2
2017-Aug-11 09:54N 59°12' E 018°43'0 0.0
2017-Aug-11 09:30N 59°12' E 018°43'0 0.0
2017-Aug-11 08:57N 59°12' E 018°43'0 0.0
2017-Aug-11 08:27N 59°12' E 018°43'0 0.0
2017-Aug-11 07:54N 59°12' E 018°43'0 0.0
2017-Aug-11 07:18N 59°12' E 018°43'0 0.0
2017-Aug-11 06:16N 59°12' E 018°43'0 0.0
2017-Aug-11 05:55N 59°12' E 018°43'0 0.0
2017-Aug-11 05:21N 59°12' E 018°43'0 0.0
2017-Aug-11 05:00N 59°12' E 018°43'1 0.0
2017-Aug-10 16:44N 59°13' E 018°43'2 6.8
2017-Aug-10 16:29N 59°14' E 018°45'2 1.5
2017-Aug-10 15:20N 59°16' E 018°47'1 2.2
2017-Aug-10 14:59N 59°15' E 018°46'2 3.4
2017-Aug-10 14:24N 59°14' E 018°42'3 2.0
2017-Aug-10 12:49N 59°17' E 018°44'0 1.0
2017-Aug-10 12:25N 59°18' E 018°45'1 1.3
2017-Aug-10 12:00N 59°18' E 018°45'1 1.7
2017-Aug-10 11:30N 59°18' E 018°47'  

Dump ship's entire track history